Date,TemperatureHighF,TemperatureAvgF,TemperatureLowF,DewpointHighF,DewpointAvgF,DewpointLowF,HumidityHigh,HumidityAvg,HumidityLow,PressureMaxIn,PressureMinIn,WindSpeedMaxMPH,WindSpeedAvgMPH,GustSpeedMaxMPH,PrecipitationSumIn
2012-1-3,52.3,48.4,42.4,34.6,32.1,28.1,71,54,42,30.39,30.29,13,7,20,0.00
2012-1-4,57.7,46.2,38.8,38.8,30.6,24.2,71,55,40,30.43,30.30,8,6,16,0.00
2012-1-5,63.2,58.4,54.2,52.0,50.5,48.1,89,76,59,30.24,30.21,6,1,9,0.00
2012-1-6,67.5,59.0,52.1,56.2,53.3,48.7,92,82,64,30.25,30.14,7,2,10,0.00
2012-1-7,70.1,60.7,52.4,59.3,54.6,49.3,92,81,63,30.21,30.11,5,2,8,0.02
2012-1-8,75.2,63.7,54.6,60.1,56.5,51.3,90,79,53,30.25,30.14,8,2,12,0.01
2012-1-9,77.1,66.3,58.1,64.0,60.0,54.9,89,81,61,30.21,30.07,9,3,13,0.00
2012-1-10,75.8,66.8,59.3,64.3,61.2,56.1,89,83,65,30.10,29.96,9,3,13,0.01
2012-1-11,71.5,67.8,63.5,67.7,64.2,60.2,89,88,84,29.98,29.75,19,7,25,0.01
2012-1-12,73.7,68.4,63.6,65.1,63.2,60.3,90,84,65,30.00,29.86,7,3,10,0.00
2012-1-13,66.8,62.7,55.2,63.5,56.2,46.5,89,79,67,30.22,30.00,11,6,18,0.00
2012-1-14,60.3,54.9,50.8,49.8,40.8,32.2,81,61,35,30.38,30.22,11,6,17,0.00
2012-1-15,68.6,56.1,45.6,54.7,42.5,28.6,87,62,34,30.47,30.34,10,4,14,0.00
2012-1-16,72.6,61.2,52.1,56.3,51.1,42.7,82,70,55,30.43,30.29,11,6,17,0.00
2012-1-17,73.8,63.9,54.3,60.3,56.4,51.1,89,77,60,30.32,30.17,8,3,12,0.00
2012-1-18,71.7,64.9,57.6,65.4,60.6,54.4,89,86,76,30.17,30.02,7,2,10,0.00
2012-1-19,73.3,64.3,58.4,62.4,52.5,38.1,92,69,29,30.18,30.01,9,4,15,0.00
2012-1-20,73.9,63.9,55.4,60.5,55.3,48.9,88,75,54,30.20,30.11,9,4,13,0.00
2012-1-21,73.5,65.7,58.2,63.0,60.0,55.0,89,82,68,30.16,30.05,9,3,13,0.00
2012-1-22,78.2,66.7,59.5,64.1,60.1,56.3,89,80,52,30.14,30.05,5,1,9,0.01
2012-1-23,76.2,67.9,61.3,67.8,62.9,58.0,89,84,72,30.14,30.05,9,3,12,0.01
2012-1-24,78.0,69.5,63.0,68.7,64.1,59.7,89,84,69,30.17,30.08,9,3,14,0.01
2012-1-25,79.3,70.3,64.3,68.4,64.8,61.0,89,83,64,30.16,30.06,10,4,16,0.01
2012-1-26,70.8,67.1,66.2,67.0,63.6,62.9,89,89,87,30.09,30.05,9,4,15,0.00
2012-1-30,76.0,68.8,63.4,60.5,57.4,54.9,74,67,57,30.30,30.22,11,9,16,0.00
2012-1-31,79.1,68.9,61.5,62.2,58.5,54.8,82,70,51,30.30,30.19,11,7,19,0.00
2012-2-1,78.0,69.3,62.8,66.6,63.1,58.6,89,81,66,30.24,30.12,10,4,13,0.00
2012-2-2,76.3,69.0,62.9,68.9,64.4,59.6,89,85,76,30.17,30.07,7,2,8,0.00
2012-2-3,76.9,70.9,66.5,68.1,65.5,63.2,89,83,74,30.20,30.10,9,5,16,0.00
2012-2-4,80.5,72.5,67.5,68.0,65.6,63.5,88,80,62,30.15,30.02,12,7,18,0.00
2012-2-5,75.9,70.8,66.8,68.8,66.5,63.5,89,86,77,30.07,29.98,5,2,8,0.00
2012-2-6,75.8,69.6,67.5,71.2,65.9,64.1,89,88,83,30.06,29.98,7,2,10,0.03
2012-2-7,77.1,72.4,68.0,71.5,68.2,64.6,89,87,81,30.05,29.95,8,5,11,0.01
2012-2-8,73.2,68.4,64.1,66.6,63.5,60.2,90,84,74,30.11,30.00,9,5,14,0.00
2012-2-9,76.9,68.3,62.3,64.1,59.8,54.2,84,74,64,30.14,30.03,10,6,16,0.00
2012-2-10,77.5,69.2,65.6,70.4,65.2,61.9,89,87,78,30.08,29.90,9,5,13,0.02
2012-2-11,67.6,63.5,56.2,64.2,57.4,46.9,90,81,66,30.13,29.90,13,7,23,0.14
2012-2-12,56.1,49.7,42.1,46.8,31.2,22.7,71,50,29,30.32,30.13,15,9,22,0.00
2012-2-13,69.4,54.4,43.2,54.0,43.8,29.5,88,68,53,30.27,30.10,10,5,18,0.00
2012-2-14,73.0,65.8,55.6,63.4,59.5,52.1,89,80,70,30.14,30.06,10,5,16,0.00
2012-2-15,72.6,64.2,59.8,64.3,60.5,56.6,90,88,74,30.20,30.10,7,2,13,0.00
2012-2-16,74.1,74.1,74.1,66.8,66.8,66.8,78,78,78,30.13,30.13,9,9,9,0.00
2012-2-17,75.5,71.6,66.5,69.5,67.4,63.8,92,87,80,30.10,30.00,7,3,11,0.01
2012-2-18,75.0,69.6,64.9,69.5,66.0,61.9,92,88,81,30.02,29.90,8,3,11,0.01
2012-2-19,75.8,71.3,67.3,71.9,67.9,61.5,91,89,83,29.97,29.86,12,7,20,0.01
2012-2-20,71.8,66.0,60.7,62.8,57.5,53.8,86,74,55,30.18,29.96,10,5,14,0.00
2012-2-21,75.8,66.3,58.2,64.2,59.2,53.6,90,79,61,30.20,30.11,12,5,19,0.00
2012-2-22,70.1,67.5,66.6,66.1,63.7,62.9,90,88,85,30.13,30.05,6,3,10,0.00
2012-2-23,75.6,71.8,69.1,71.4,68.6,66.0,91,90,85,30.00,29.93,9,5,14,0.01
2012-2-24,77.3,72.8,69.2,73.0,69.4,65.8,91,89,85,30.04,29.94,11,5,16,0.02
2012-2-25,76.8,70.9,63.2,68.8,63.8,53.6,92,79,59,30.19,30.01,11,6,17,0.00
2012-2-26,79.0,70.2,63.0,68.3,62.4,53.4,89,77,68,30.25,30.16,14,9,20,0.00
2012-2-27,80.4,73.6,69.1,71.9,69.0,66.0,91,86,74,30.27,30.17,9,5,13,0.57
2012-2-28,81.5,73.8,67.0,72.4,68.5,64.2,91,84,71,30.26,30.14,7,4,11,0.14
2012-2-29,79.6,73.1,67.5,71.1,68.5,64.8,91,86,74,30.22,30.09,9,4,12,0.00
2012-3-1,78.8,72.9,68.7,71.7,68.9,65.7,91,88,77,30.13,30.02,9,2,11,0.00
2012-3-2,79.0,73.5,68.5,73.4,70.0,65.5,91,89,82,30.05,29.95,9,4,16,0.02
2012-3-3,79.3,75.4,72.9,74.5,72.0,70.1,91,89,84,29.97,29.84,12,7,18,0.01
2012-3-4,75.5,67.0,57.6,72.7,56.2,40.3,91,70,48,30.22,29.78,19,12,30,0.09
2012-3-5,72.8,61.6,52.5,56.3,43.7,34.1,85,54,26,30.37,30.22,12,5,16,0.00
2012-3-6,78.4,65.6,55.4,62.2,55.2,48.1,83,70,46,30.37,30.26,14,7,22,0.00
2012-3-7,81.0,71.8,64.0,66.0,62.7,59.0,86,74,57,30.33,30.21,13,9,23,0.00
2012-3-8,82.1,72.5,67.2,69.5,66.8,64.2,91,83,63,30.25,30.13,13,6,21,0.19
2012-3-9,78.6,71.8,66.9,70.9,67.7,63.9,91,87,75,30.19,30.09,8,3,12,0.01
2012-3-10,80.4,73.8,68.1,70.5,68.3,65.3,91,83,68,30.18,30.09,8,4,11,0.00
2012-3-11,80.6,73.6,69.0,70.1,67.7,65.9,91,82,66,30.25,30.14,10,6,14,0.01
2012-3-12,82.0,73.4,67.7,66.4,63.9,59.4,89,73,55,30.26,30.15,13,7,18,0.00
2012-3-13,81.5,72.3,66.0,65.4,62.8,60.6,88,73,53,30.23,30.13,9,4,14,0.00
2012-3-14,80.1,71.8,64.5,67.9,63.8,60.1,90,76,57,30.22,30.11,9,4,12,0.00
2012-3-15,76.7,70.2,66.1,67.0,64.4,62.4,89,82,72,30.20,30.12,11,5,17,0.00
2012-3-16,80.7,72.6,67.4,69.2,66.0,63.8,90,81,58,30.21,30.09,9,4,13,0.00
2012-3-17,80.7,72.4,65.3,67.4,64.0,60.6,90,76,51,30.22,30.11,8,4,11,0.00
2012-3-18,82.5,73.0,64.5,67.7,63.6,59.2,90,74,47,30.23,30.09,9,5,15,0.00
2012-3-19,82.7,72.9,67.0,69.9,65.5,60.2,89,78,49,30.17,30.03,10,5,16,0.00
2012-3-20,80.3,72.4,67.4,68.9,65.0,60.5,88,78,61,30.09,29.99,11,5,14,0.00
2012-3-21,80.7,73.6,67.4,73.2,68.5,64.0,91,84,73,30.12,30.00,11,5,16,0.04
2012-3-22,81.0,74.5,71.0,72.5,69.7,66.6,90,85,73,30.14,30.03,11,6,16,0.00
2012-3-23,78.5,73.5,68.6,70.0,67.8,65.5,91,83,71,30.12,30.01,11,4,15,0.00
2012-3-24,75.2,72.1,70.5,69.9,68.2,66.9,89,87,83,30.05,30.00,6,2,9,0.00
2012-3-25,76.8,73.5,69.0,70.8,66.6,59.6,83,79,70,29.94,29.86,15,8,22,0.10
2012-3-26,79.1,72.5,67.9,66.8,60.4,51.0,84,67,42,30.01,29.91,10,4,15,0.00
2012-3-27,82.1,73.3,66.3,69.0,63.0,57.6,80,70,55,30.16,29.99,11,5,16,0.00
2012-3-28,82.8,72.9,65.9,67.2,63.2,58.6,84,73,44,30.16,30.03,12,5,17,0.00
2012-3-29,77.9,71.9,66.1,67.3,65.2,63.1,91,80,68,30.08,29.97,10,3,14,0.00
2012-3-30,78.5,73.0,67.2,69.0,65.1,60.1,84,77,67,30.06,29.98,12,5,15,0.00
2012-3-31,79.7,75.8,72.0,74.1,71.1,67.0,89,85,81,30.01,29.91,12,6,17,0.00
2012-4-1,80.5,74.7,70.3,69.1,67.8,65.9,89,80,65,29.97,29.88,10,4,14,0.00
2012-4-2,80.1,74.0,67.3,70.9,68.1,64.6,91,82,66,29.95,29.87,10,3,14,0.00
2012-4-3,81.1,77.2,73.1,67.6,66.2,63.1,83,69,55,29.97,29.91,9,4,11,0.00
2012-4-4,81.7,76.4,71.0,73.8,71.5,67.5,92,85,75,29.97,29.83,11,4,21,0.00
2012-4-5,80.4,76.2,69.0,74.2,71.5,65.7,92,85,77,29.92,29.78,14,8,19,0.14
2012-4-6,80.6,76.9,70.6,73.7,69.2,61.5,91,77,63,29.93,29.74,19,10,28,0.39
2012-4-7,81.4,72.2,64.1,66.7,62.3,58.4,85,72,52,30.11,29.93,12,8,18,0.00
2012-4-8,80.7,72.0,64.7,64.1,59.3,52.4,83,66,38,30.15,30.05,11,6,17,0.00
2012-4-9,79.6,71.4,66.1,64.2,61.9,58.8,84,73,51,30.10,30.02,9,4,13,0.00
2012-4-10,79.3,75.8,67.7,68.8,66.7,63.9,89,74,66,30.09,29.98,11,5,16,0.00
2012-4-11,79.3,73.0,67.9,68.0,65.1,61.6,87,77,65,30.08,29.98,10,3,14,0.00
2012-4-12,80.2,73.6,67.9,66.7,63.8,57.3,87,72,55,30.07,29.98,11,5,16,0.00
2012-4-13,80.0,73.5,66.6,70.6,66.3,57.1,91,79,60,30.10,30.00,11,4,14,0.00
2012-4-14,79.7,73.1,69.0,69.6,66.7,64.0,91,81,70,30.19,30.06,17,8,27,0.00
2012-4-15,80.5,74.2,68.8,67.5,64.4,62.3,82,72,59,30.19,30.12,11,7,18,0.00
2012-4-16,82.5,74.9,68.1,67.9,64.2,61.3,82,70,52,30.18,30.09,15,7,20,0.00
2012-4-17,82.9,74.7,67.7,68.9,64.9,60.0,84,72,48,30.15,30.03,11,6,17,0.00
2012-4-18,80.8,75.6,70.3,70.8,67.9,63.1,85,77,69,30.09,29.96,11,7,21,0.00
2012-4-19,81.4,77.0,72.9,72.9,71.2,69.2,89,82,74,29.99,29.88,11,6,17,0.00
2012-4-20,81.5,77.3,72.2,73.6,71.8,68.1,90,83,75,29.93,29.82,11,5,15,0.03
2012-4-21,75.8,71.6,67.6,69.6,67.6,64.9,92,87,79,29.89,29.62,18,8,25,1.68
2012-4-22,77.6,72.7,64.5,71.6,65.4,59.3,91,78,66,29.79,29.56,24,10,33,0.64
2012-4-23,74.6,70.5,66.3,60.2,55.3,51.1,70,59,49,29.93,29.77,13,9,22,0.04
2012-4-24,70.1,64.8,59.4,53.3,49.6,38.1,69,58,39,30.06,29.92,12,6,19,0.03
2012-4-25,70.7,61.2,57.2,53.0,50.8,46.7,79,69,45,30.13,30.03,8,2,11,0.00
2012-4-26,78.0,74.1,64.9,63.0,60.9,58.0,85,64,52,30.16,30.06,11,6,16,0.00
2012-4-28,80.9,75.2,73.1,74.1,70.8,68.8,90,86,77,30.08,29.99,13,4,17,0.01
2012-4-29,78.2,74.5,71.3,71.5,69.5,67.3,89,85,77,30.07,29.99,10,6,15,0.01
2012-4-30,83.5,75.5,70.1,72.2,68.4,65.8,87,79,62,30.05,29.96,17,10,27,0.00
2012-5-1,86.2,76.1,72.4,74.2,70.6,68.5,90,84,64,30.04,29.96,16,9,25,0.43
2012-5-2,85.7,76.9,71.6,74.1,71.2,68.6,91,83,64,30.07,29.98,11,7,18,0.00
2012-5-3,82.0,76.5,72.2,74.1,71.2,68.8,89,84,73,30.09,29.99,11,6,16,0.00
2012-5-4,81.7,76.7,72.4,72.7,70.8,69.2,90,82,70,30.09,29.98,10,4,13,0.00
2012-5-5,80.9,76.7,72.9,71.6,69.7,67.9,89,79,68,30.02,29.93,9,4,12,0.00
2012-5-6,81.1,77.2,72.1,72.5,70.6,67.9,88,80,73,30.00,29.90,10,4,15,0.00
2012-5-7,81.2,76.4,71.9,73.4,71.0,68.2,90,84,75,29.93,29.85,9,3,11,0.00
2012-5-8,82.6,77.7,72.8,74.8,72.0,68.7,88,83,75,29.93,29.85,10,3,15,0.00
2012-5-9,82.8,79.0,75.1,75.4,73.4,71.0,88,83,76,29.91,29.81,11,6,16,0.00
2012-5-10,83.0,78.8,74.8,75.2,72.6,66.3,87,82,74,29.92,29.79,10,6,15,0.00
2012-5-11,84.8,76.9,69.9,75.7,70.1,63.0,90,80,68,30.08,29.90,10,5,14,0.00
2012-5-12,88.8,80.0,73.3,74.3,70.2,67.9,89,73,51,30.14,30.03,11,8,18,0.00
2012-5-13,84.9,77.2,72.0,74.1,70.3,67.9,88,80,64,30.11,29.98,12,6,17,0.00
2012-5-14,83.3,78.3,73.3,74.2,72.1,69.9,90,82,69,30.06,29.92,11,4,13,0.01
2012-5-15,83.9,76.6,72.4,76.1,72.4,69.5,91,87,75,30.02,29.93,6,3,9,0.08
2012-5-16,79.4,77.4,75.3,73.4,72.2,70.5,91,84,76,30.02,29.91,5,3,9,0.15
2012-5-17,81.8,77.9,73.1,74.1,72.3,69.9,91,83,76,29.96,29.88,10,5,13,0.01
2012-5-18,83.3,78.5,73.1,74.5,72.2,70.0,91,81,71,29.95,29.88,9,4,13,0.08
2012-5-19,85.0,78.1,72.6,75.2,71.1,68.2,90,79,59,29.96,29.86,11,4,16,0.00
2012-5-20,84.3,77.7,70.8,73.6,70.2,66.1,91,78,60,29.97,29.89,11,6,15,0.00
2012-5-21,84.7,78.3,71.7,73.8,70.1,66.6,88,76,63,30.00,29.91,9,6,15,0.00
2012-5-22,86.6,77.2,71.5,71.3,67.0,57.3,85,72,38,29.97,29.88,7,2,11,0.00
2012-5-23,87.8,79.7,73.1,75.0,71.8,65.2,90,78,63,29.92,29.80,8,3,13,0.00
2012-5-24,89.2,80.6,73.8,77.8,73.8,70.2,90,80,62,29.91,29.81,9,4,12,0.01
2012-5-25,88.5,80.4,74.0,76.9,73.6,70.6,90,80,62,30.03,29.88,10,4,14,0.17
2012-5-26,89.5,79.5,71.8,76.3,73.2,67.6,91,82,54,30.05,29.93,16,4,18,0.79
2012-5-27,84.8,80.4,75.3,77.1,74.6,71.5,89,83,72,29.98,29.87,12,5,17,0.00
2012-5-28,85.1,82.0,80.3,77.2,75.0,70.4,84,80,67,29.95,29.87,14,8,20,0.00
2012-5-29,85.7,81.9,79.7,76.2,74.6,73.2,84,79,71,29.97,29.90,11,6,15,0.00
2012-5-30,85.3,81.8,79.3,76.7,74.5,72.6,84,79,69,29.94,29.85,11,6,15,0.00
2012-5-31,84.0,80.2,77.9,77.0,74.0,70.8,85,81,74,29.95,29.86,10,4,12,0.00
2012-6-1,82.7,79.1,73.7,76.6,73.8,70.6,90,84,77,29.95,29.86,15,7,20,0.40
2012-6-2,83.7,80.1,76.4,75.5,73.8,72.1,90,81,70,29.99,29.89,11,5,17,0.03
2012-6-3,85.7,80.4,75.1,75.7,73.2,71.0,88,79,67,30.05,29.94,8,4,13,0.00
2012-6-4,84.6,80.1,74.5,77.0,74.1,70.5,89,82,73,30.00,29.89,8,4,13,0.00
2012-6-5,85.3,82.3,80.3,78.0,76.5,74.5,87,83,78,29.91,29.81,11,6,16,0.00
2012-6-6,84.6,82.8,79.1,78.2,76.4,68.3,84,81,68,29.93,29.85,12,6,18,0.00
2012-6-7,86.5,83.3,81.3,78.6,77.3,73.4,87,82,75,29.97,29.89,12,7,18,0.00
2012-6-8,86.8,82.9,77.2,80.1,77.5,73.0,89,84,78,29.97,29.89,11,6,15,0.00
2012-6-9,87.7,80.2,71.9,80.3,75.1,68.7,91,85,75,30.04,29.90,12,5,15,0.65
2012-6-10,88.2,82.4,77.4,80.1,76.5,72.2,90,83,73,30.12,29.98,10,4,16,0.00
2012-6-11,91.9,83.9,78.0,79.7,76.2,72.0,89,78,60,30.11,30.02,8,4,16,0.00
2012-6-12,87.6,81.4,74.8,77.1,72.7,70.0,88,75,60,30.07,29.94,10,4,15,0.01
2012-6-13,86.7,81.7,76.2,77.2,75.1,72.4,89,81,65,29.98,29.90,8,3,12,0.00
2012-6-14,87.7,82.6,78.3,77.1,75.1,70.9,86,79,69,30.00,29.89,10,5,16,0.00
2012-6-15,89.8,80.1,74.0,76.6,72.9,70.0,90,79,57,30.02,29.92,15,4,29,0.00
2012-6-16,89.5,80.7,74.8,73.7,71.7,68.4,89,75,55,30.03,29.93,13,6,19,0.00
2012-6-17,89.5,81.3,74.0,71.2,68.5,63.4,87,67,45,30.03,29.90,11,7,17,0.00
2012-6-18,89.0,80.9,73.4,70.1,67.6,64.4,81,65,46,30.01,29.93,11,7,17,0.00
2012-6-19,86.0,79.7,74.3,72.6,69.6,67.2,83,72,56,30.02,29.94,12,8,18,0.00
2012-6-20,83.6,79.1,75.3,75.8,73.5,71.2,89,83,75,29.99,29.91,11,8,20,0.00
2012-6-21,85.7,79.2,75.9,76.4,73.9,72.2,89,84,72,29.97,29.85,11,6,15,0.06
2012-6-22,79.9,77.0,75.4,75.6,73.6,72.3,90,89,86,29.93,29.81,9,4,13,0.57
2012-6-23,78.7,76.3,73.6,75.2,73.1,70.5,90,90,89,29.93,29.82,13,7,19,0.45
2012-6-24,83.2,80.3,76.7,79.0,76.7,73.5,90,89,84,29.92,29.75,16,11,25,1.00
2012-6-25,83.3,81.0,74.0,77.6,76.1,70.8,90,85,80,29.79,29.70,30,16,45,0.24
2012-6-26,84.0,81.7,77.0,78.3,77.0,73.5,90,86,82,29.75,29.65,22,17,33,0.29
2012-6-27,84.7,81.4,77.4,78.1,76.1,72.9,89,84,77,29.99,29.74,21,9,28,0.07
2012-6-28,86.2,80.3,75.1,76.5,74.3,71.6,90,83,71,30.08,29.99,8,3,10,0.04
2012-6-29,80.6,77.3,74.7,74.5,72.6,70.8,89,86,77,30.05,29.99,3,0,5,0.01
2012-6-30,86.4,83.2,80.0,77.5,76.2,75.3,86,80,74,30.02,29.95,9,4,13,0.00
2012-7-1,87.7,82.2,76.6,77.8,75.4,73.1,89,80,68,30.09,29.98,9,3,12,0.00
2012-7-2,88.2,83.1,77.3,78.2,75.8,73.7,89,79,67,30.11,29.99,9,3,13,0.00
2012-7-3,88.6,82.6,77.6,78.3,74.9,70.7,89,78,64,30.06,29.98,9,2,17,0.00
2012-7-4,87.6,82.8,77.1,77.0,74.4,71.3,84,76,65,30.09,30.00,7,2,10,0.00
2012-7-5,86.0,79.5,76.5,75.6,73.5,72.6,89,82,67,30.06,29.99,6,1,10,0.00
2012-7-6,87.5,80.0,76.2,76.9,74.3,72.2,90,83,69,30.04,29.99,11,3,19,0.00
2012-7-7,91.4,82.0,76.3,77.3,74.8,71.3,90,80,56,30.07,30.01,13,2,19,0.23
2012-7-8,91.3,82.5,76.8,79.2,75.6,71.6,90,80,62,30.08,29.98,11,3,14,0.02
2012-7-9,87.0,82.3,77.8,77.6,75.6,73.3,89,80,71,30.05,29.95,9,3,12,0.00
2012-7-10,87.7,80.2,73.4,79.0,74.5,68.3,90,83,70,30.03,29.93,12,4,16,0.70
2012-7-11,84.8,78.1,74.4,76.3,73.1,71.1,90,85,72,30.04,29.98,8,4,13,0.01
2012-7-12,85.1,82.5,77.3,76.3,75.3,73.8,90,79,74,30.01,29.94,8,5,12,0.55
2012-7-13,86.2,78.3,73.6,77.0,74.0,70.5,90,87,70,30.04,29.96,9,3,12,0.57
2012-7-14,89.2,80.0,73.9,77.2,74.4,70.5,90,84,63,30.08,29.98,14,3,19,0.32
2012-7-15,86.5,80.0,75.3,77.3,74.6,72.2,91,84,69,30.10,30.01,12,4,15,0.01
2012-7-16,85.1,79.5,74.0,77.0,74.1,70.9,91,84,70,30.08,29.97,9,3,17,0.23
2012-7-17,81.3,77.5,74.5,75.4,73.1,71.4,91,86,76,30.05,29.96,15,3,24,0.85
2012-7-18,87.2,82.5,77.1,79.0,76.1,71.9,86,81,73,30.12,29.99,8,4,12,0.00
2012-7-19,88.0,85.3,81.9,80.1,78.5,76.9,87,81,73,30.18,30.08,7,4,11,0.00
2012-7-20,90.0,83.4,78.5,79.7,76.9,72.6,90,81,70,30.13,30.01,8,3,13,0.00
2012-7-21,89.6,81.6,77.2,79.1,76.2,72.7,90,84,67,30.10,30.01,12,3,19,0.24
2012-7-22,88.3,80.1,76.1,79.9,75.3,72.0,90,86,72,30.12,30.03,13,5,21,0.02
2012-7-23,88.3,80.8,75.5,80.2,76.2,72.2,90,86,74,30.15,30.07,10,4,15,0.06
2012-7-24,88.4,83.5,79.9,81.0,77.8,75.3,90,83,70,30.14,30.02,8,3,10,0.01
2012-7-25,88.0,84.1,80.3,79.5,77.5,76.1,88,81,73,30.06,30.00,7,3,11,0.00
2012-7-26,88.4,84.5,81.2,78.1,76.3,74.7,84,77,68,30.05,29.97,8,3,11,0.00
2012-7-27,88.7,84.3,81.0,78.0,76.0,74.4,85,76,64,30.09,29.99,9,2,15,0.00
2012-7-28,88.8,82.9,79.3,78.2,75.6,74.2,88,79,66,30.11,30.02,10,2,15,0.00
2012-7-29,87.6,83.0,78.7,78.2,76.3,73.8,90,81,72,30.09,29.99,8,2,11,0.12
2012-7-30,89.0,84.0,79.2,78.6,76.2,74.5,88,78,65,30.06,29.99,9,2,15,0.00
2012-7-31,88.8,84.5,80.9,78.5,76.3,74.3,85,77,67,30.05,29.97,8,3,14,0.00
2012-8-1,88.8,84.7,80.3,78.9,76.0,72.7,84,76,61,30.03,29.94,8,4,14,0.00
2012-8-2,89.5,84.0,78.8,77.9,75.6,73.4,87,76,62,30.00,29.92,8,2,11,0.00
2012-8-3,91.9,83.6,78.1,77.8,75.1,72.3,89,76,56,30.01,29.92,10,3,18,0.00
2012-8-4,92.2,83.7,77.1,78.4,75.5,73.2,90,77,60,30.04,29.95,9,4,14,0.00
2012-8-5,89.3,82.3,74.5,80.2,76.5,71.0,90,83,70,30.08,29.99,14,4,24,0.64
2012-8-6,88.6,81.6,77.7,79.7,76.5,74.5,90,85,72,30.07,29.99,9,4,15,0.00
2012-8-8,90.8,87.3,81.6,78.8,76.8,71.7,79,71,65,30.03,29.95,8,5,12,0.00
2012-8-9,91.2,83.8,76.1,79.4,76.4,72.4,89,79,66,30.02,29.90,13,4,18,0.13
2012-8-10,88.8,79.7,75.9,78.2,74.6,72.4,90,85,67,30.00,29.91,9,2,14,0.11
2012-8-11,86.7,79.0,72.3,78.3,74.3,68.9,90,86,73,30.03,29.93,11,3,16,1.13
2012-8-12,84.4,80.3,75.5,77.9,75.3,71.9,89,85,77,30.07,29.95,12,3,24,0.21
2012-8-13,88.3,81.8,77.2,79.1,76.0,73.7,89,83,71,30.08,29.99,6,2,9,0.00
2012-8-14,88.4,82.8,78.3,79.5,76.7,73.2,89,82,71,30.06,29.95,8,3,16,0.00
2012-8-15,90.3,82.4,76.4,80.0,76.1,72.9,89,82,68,30.05,29.96,8,2,11,0.06
2012-8-16,90.3,84.7,80.1,78.6,76.9,74.9,88,78,66,30.09,29.98,7,2,10,0.00
2012-8-17,90.4,83.7,76.9,79.6,76.9,73.1,88,80,64,30.05,29.94,11,2,16,0.02
2012-8-18,88.5,84.1,81.5,78.9,76.5,73.0,86,78,69,30.00,29.90,13,4,17,0.07
2012-8-19,89.0,85.3,81.6,79.1,77.1,75.5,83,77,70,30.00,29.93,12,6,17,0.00
2012-8-20,89.6,85.8,82.0,79.8,77.6,76.0,84,77,70,30.01,29.91,11,6,16,0.00
2012-8-21,90.0,84.5,74.7,79.5,76.3,70.9,88,77,66,30.11,29.96,14,6,21,1.02
2012-8-22,88.7,80.8,73.5,79.4,74.5,69.7,88,82,69,30.11,30.00,11,4,14,0.08
2012-8-23,90.4,81.6,74.3,77.8,73.1,68.7,88,76,57,30.08,29.99,10,3,15,0.00
2012-8-24,92.5,83.8,77.6,77.8,74.0,69.2,87,73,47,30.03,29.91,11,5,16,0.00
2012-8-25,84.7,80.2,74.5,76.1,73.3,70.1,87,80,69,29.99,29.88,13,7,18,0.08
2012-8-26,83.7,78.8,74.8,77.1,74.2,71.0,88,86,78,29.92,29.66,19,12,31,1.25
2012-8-27,86.9,82.0,77.3,80.0,76.9,73.5,88,85,78,29.87,29.61,19,13,30,0.50
2012-8-28,87.0,83.7,78.0,80.1,78.0,73.8,87,83,78,29.97,29.85,15,10,24,0.18
2012-8-29,87.6,83.0,80.3,79.8,77.2,75.6,87,83,74,29.99,29.91,11,6,19,0.00
2012-8-30,87.8,83.2,79.7,79.3,77.1,75.5,87,82,74,30.09,29.94,9,4,11,0.00
2012-8-31,92.8,83.9,77.5,79.2,76.0,73.5,88,78,58,30.15,30.05,7,3,12,0.00
2012-9-1,92.4,84.1,78.4,78.2,75.0,71.4,87,75,55,30.13,30.00,9,4,14,0.03
2012-9-2,90.0,82.9,76.4,74.6,70.5,62.6,86,68,43,30.07,29.95,8,4,12,0.00
2012-9-3,87.8,81.2,75.0,75.0,72.5,70.5,86,75,61,30.05,29.95,7,3,11,0.00
2012-9-4,86.9,81.8,75.4,77.6,74.5,70.9,86,79,72,30.02,29.94,8,3,11,0.00
2012-9-5,87.7,82.2,73.7,78.5,75.5,69.2,87,80,70,30.01,29.92,12,4,17,0.22
2012-9-6,87.2,80.8,73.0,78.8,74.8,68.9,88,82,72,30.02,29.94,11,4,14,0.01
2012-9-7,87.0,82.0,77.5,77.7,75.2,72.9,87,80,72,30.00,29.91,8,3,13,0.00
2012-9-8,87.0,83.0,78.0,77.8,75.5,72.5,84,78,72,29.98,29.89,11,6,16,0.00
2012-9-9,87.1,84.0,81.6,78.5,76.6,74.8,82,78,72,29.98,29.90,15,10,21,0.00
2012-9-10,87.0,83.0,79.6,79.0,76.5,74.7,85,81,74,30.01,29.93,10,5,15,0.00
2012-9-11,89.5,81.0,76.7,79.4,74.5,71.9,87,81,60,30.09,29.97,11,4,17,0.00
2012-9-12,90.7,82.1,76.7,76.2,73.6,71.0,86,76,53,30.09,29.98,11,7,20,0.00
2012-9-13,85.5,80.5,77.3,76.4,74.0,71.8,85,81,73,30.07,29.96,12,7,18,0.00
2012-9-14,87.4,78.9,75.7,75.8,73.1,71.4,87,83,66,30.03,29.97,8,5,14,0.00
2012-9-17,81.2,81.0,80.9,75.9,75.7,75.6,84,84,84,29.96,29.95,6,5,12,0.00
2012-9-18,87.2,81.6,74.2,79.9,75.8,70.1,88,83,75,29.99,29.89,14,7,20,0.39
2012-9-19,85.3,80.4,75.4,76.6,73.8,70.6,88,81,70,30.04,29.91,7,2,11,0.00
2012-9-20,88.7,79.4,76.6,77.1,74.1,72.4,87,84,64,30.03,29.92,6,1,7,0.00
2012-9-21,85.7,78.0,72.5,77.7,72.6,68.7,88,84,73,29.99,29.89,13,4,23,0.57
2012-9-22,82.7,76.5,73.3,76.1,72.0,69.5,88,86,79,30.03,29.93,9,3,16,0.25
2012-9-23,87.0,79.5,73.6,75.6,72.0,68.8,88,79,56,30.06,29.98,7,2,11,0.01
2012-9-24,85.1,79.1,75.0,75.2,71.5,67.0,87,78,66,30.08,29.99,8,3,13,0.00
2012-9-25,85.2,78.9,74.5,74.2,70.3,65.3,82,75,68,30.08,29.99,7,4,11,0.00
2012-9-26,87.2,80.1,76.1,76.3,73.3,70.7,85,80,68,30.09,30.00,7,3,10,0.00
2012-9-27,89.0,80.4,74.4,77.5,73.6,70.0,88,80,64,30.09,29.97,7,3,12,0.00
2012-9-28,88.8,80.8,75.4,77.4,73.6,70.3,88,79,64,30.04,29.92,7,3,11,0.00
2012-9-29,85.5,80.5,75.5,76.6,74.1,71.4,87,81,71,29.97,29.84,8,3,11,0.00
2012-9-30,86.4,81.0,75.9,77.2,74.6,71.4,88,81,71,29.90,29.78,9,3,12,0.08
2012-10-1,86.2,81.2,75.8,77.9,75.2,71.7,87,82,75,29.83,29.75,9,6,16,0.17
2012-10-2,86.0,81.0,76.6,78.3,75.4,71.9,86,83,77,30.02,29.82,15,7,17,0.12
2012-10-3,87.2,80.3,75.2,79.8,75.0,71.0,87,84,75,30.15,30.00,12,5,17,0.21
2012-10-4,87.6,79.4,76.7,79.5,74.4,72.4,88,85,74,30.15,30.06,10,4,12,0.00
2012-10-5,88.9,79.1,72.5,79.4,73.8,67.9,88,84,69,30.10,29.92,14,5,26,0.01
2012-10-6,86.1,80.0,73.5,77.2,74.1,69.5,88,83,73,29.98,29.84,9,3,14,1.38
2012-10-7,87.4,77.9,73.6,78.1,72.6,69.6,88,84,68,29.97,29.88,13,3,23,0.82
2012-10-8,85.5,76.1,74.5,77.1,72.1,70.7,88,87,75,30.01,29.92,6,1,7,0.00
2012-10-9,87.1,80.2,74.0,77.5,74.0,70.2,88,82,69,30.02,29.95,8,3,13,0.00
2012-10-10,85.6,80.0,74.7,77.6,73.8,70.9,88,82,72,30.08,29.98,8,5,13,0.00
2012-10-11,80.0,75.2,72.8,72.0,69.1,67.3,86,82,69,30.14,30.05,10,6,14,0.00
2012-10-12,84.8,80.9,75.4,69.7,67.7,64.7,77,65,54,30.15,30.06,10,7,19,0.00
2012-10-13,86.1,77.5,71.0,71.5,68.7,65.4,85,75,58,30.13,30.01,12,7,21,0.00
2012-10-14,88.1,79.1,71.8,74.7,71.8,67.7,87,79,62,30.08,29.94,12,6,17,0.00
2012-10-15,83.6,78.1,74.3,75.8,73.1,70.5,88,85,75,29.95,29.79,10,4,15,0.00
2012-10-16,83.4,77.0,73.9,73.9,71.5,69.7,87,83,66,29.87,29.80,8,3,13,0.00
2012-10-17,82.2,75.8,73.9,74.6,70.6,69.8,87,84,78,29.87,29.84,5,2,8,0.00
2012-10-18,83.3,78.3,73.5,77.1,73.4,69.4,88,85,80,29.88,29.80,8,2,11,0.00
2012-10-19,79.9,77.0,75.0,74.8,73.1,71.2,88,88,86,29.88,29.83,5,1,6,0.00
2012-10-22,85.0,79.5,70.8,68.8,67.4,64.9,82,67,53,30.04,29.93,12,8,20,0.00
2012-10-23,86.3,77.2,69.6,72.2,67.9,64.9,85,74,51,30.00,29.89,13,7,21,0.00
2012-10-24,82.7,75.1,72.4,73.6,69.8,67.8,87,84,65,29.98,29.84,11,6,17,0.00
2012-10-25,82.2,78.7,73.8,74.1,71.8,69.7,87,80,72,29.83,29.73,11,8,24,0.00
2012-10-26,83.6,77.3,74.0,74.0,70.0,64.9,87,78,57,29.75,29.59,14,10,24,0.00
2012-10-27,80.0,76.6,74.2,69.0,66.6,63.5,78,71,64,29.74,29.60,14,10,23,0.00
2012-10-28,76.8,74.0,69.4,68.4,63.7,57.3,79,70,59,29.81,29.71,16,10,27,0.00
2012-10-29,69.8,67.0,63.8,59.2,53.8,47.4,75,63,52,29.90,29.78,12,9,23,0.00
2012-10-30,69.5,66.0,57.5,54.7,52.3,49.5,76,61,53,29.99,29.83,14,8,27,0.00
2012-10-31,72.4,67.5,61.4,58.5,56.4,53.1,84,68,60,30.06,29.98,8,4,12,0.00
2012-11-1,75.8,67.7,61.3,64.5,61.0,56.2,86,79,66,30.06,30.01,7,2,10,0.00
2012-11-4,76.9,72.3,68.6,66.8,64.0,60.5,85,75,58,30.05,29.99,7,2,9,0.00
2012-11-5,75.3,70.4,66.3,68.6,65.4,61.9,88,84,77,30.02,29.93,8,2,11,0.00
2012-11-6,74.6,68.6,64.8,68.7,64.4,61.2,89,87,78,29.94,29.84,7,1,13,0.22
2012-11-7,69.5,66.0,62.3,62.5,58.2,54.6,85,76,64,29.97,29.86,11,6,20,0.00
2012-11-9,74.5,67.0,55.4,56.8,52.1,45.0,76,60,38,30.23,30.13,9,5,17,0.00
2012-11-10,75.8,66.8,58.9,59.3,56.6,53.5,84,71,52,30.28,30.17,9,5,14,0.00
2012-11-11,80.7,70.0,61.7,62.6,59.6,57.0,86,71,48,30.24,30.15,12,5,17,0.00
2012-11-12,79.9,72.1,65.5,69.0,64.8,61.2,87,78,65,30.21,30.12,12,4,16,0.00
2012-11-13,80.3,71.9,65.7,69.3,65.4,62.0,88,80,64,30.15,30.06,7,3,10,0.00
2012-11-14,79.6,71.2,66.1,70.2,65.4,62.4,88,82,65,30.15,30.04,6,3,14,0.00
2012-11-16,67.8,65.2,62.8,62.3,60.3,58.5,87,84,82,30.13,30.04,9,6,14,0.00
2012-11-17,78.8,68.6,61.2,67.9,62.6,57.4,88,81,62,30.12,30.01,11,6,16,0.00
2012-11-18,74.7,68.3,62.8,66.0,62.4,58.9,87,81,74,30.15,30.06,11,7,16,0.00
2012-11-19,71.8,63.6,58.2,62.0,57.2,53.7,85,80,64,30.15,30.03,11,7,15,0.00
2012-11-20,69.2,63.5,58.4,62.2,58.2,53.9,86,83,76,30.08,29.96,9,6,16,0.00
2012-11-21,72.2,65.4,60.4,60.7,57.1,53.7,84,75,54,30.08,29.97,13,7,19,0.00
2012-11-22,72.0,63.5,56.7,55.7,48.8,41.1,83,61,38,30.16,30.05,11,6,19,0.00
2012-11-23,71.7,62.3,54.7,55.9,46.9,36.0,81,58,31,30.20,30.08,9,5,13,0.00
2012-11-24,72.5,64.2,56.7,61.3,57.1,52.1,87,78,58,30.13,30.01,9,3,11,0.00
2012-11-25,67.3,60.2,53.3,54.4,50.7,46.1,84,72,47,30.17,30.07,6,4,10,0.00
2012-11-26,76.8,65.1,55.7,63.5,57.9,50.7,87,78,61,30.20,30.10,7,2,10,0.00
2012-11-27,77.3,68.7,61.3,68.6,63.5,57.4,89,84,74,30.18,30.09,8,3,13,0.00
2012-11-28,73.0,67.7,63.2,66.3,63.0,58.3,88,85,75,30.21,30.10,8,3,15,0.00
2012-11-29,78.5,67.0,57.4,65.7,59.5,53.6,88,78,60,30.24,30.13,10,7,16,0.00
2012-11-30,76.6,68.6,62.2,64.9,61.2,57.6,86,78,65,30.22,30.12,13,5,19,0.00
2012-12-1,79.2,69.2,60.5,63.9,60.7,56.1,86,75,56,30.21,30.12,8,4,14,0.00
2012-12-2,80.2,70.5,63.2,66.8,62.7,59.5,88,77,53,30.24,30.13,8,4,13,0.00
2012-12-3,72.2,66.4,64.9,65.7,62.0,60.9,88,86,79,30.25,30.17,7,4,9,0.00
2012-12-4,77.8,77.7,77.7,62.8,62.4,62.2,60,59,59,30.15,30.14,7,6,13,0.00
2012-12-5,72.3,69.2,67.4,64.7,63.6,62.4,85,82,77,30.04,30.02,3,1,11,0.00
2012-12-6,77.7,70.4,64.5,68.0,64.3,60.5,87,81,72,30.03,29.91,7,2,11,0.00
2012-12-7,77.7,69.8,64.3,68.1,64.2,60.7,88,83,66,29.98,29.89,6,2,8,0.00
2012-12-8,80.8,71.6,65.5,71.4,66.4,61.9,88,84,72,30.04,29.94,8,2,12,0.00
2012-12-9,80.2,72.1,65.9,71.9,67.2,62.2,89,85,74,30.08,29.98,5,1,8,0.01
2012-12-10,78.0,72.6,68.3,73.2,68.5,64.3,88,87,84,30.01,29.88,11,4,17,0.11
2012-12-11,74.9,72.5,70.8,70.8,68.7,67.1,88,88,86,30.04,29.90,12,4,15,0.62
2012-12-12,75.1,72.5,68.2,71.3,68.7,64.5,88,88,87,30.07,29.97,15,3,22,0.41
2012-12-13,72.6,69.4,66.1,68.2,64.3,62.1,88,84,72,30.15,30.02,10,6,18,0.02
2012-12-16,76.8,71.1,67.1,68.7,65.5,62.5,87,83,75,29.98,29.93,6,1,9,0.00
2012-12-17,75.8,71.1,66.9,70.4,66.6,62.9,88,86,80,29.99,29.90,8,3,12,0.00
2012-12-18,77.4,72.1,67.0,71.9,67.9,63.0,88,87,83,30.02,29.90,9,4,14,0.00
2012-12-19,77.2,67.9,59.5,63.7,59.6,52.7,88,76,53,30.10,30.01,7,2,10,0.00
2012-12-20,77.3,71.4,63.9,69.6,65.9,58.1,87,83,75,30.08,29.95,10,5,16,0.00
2012-12-21,72.5,62.5,54.8,68.4,52.8,45.2,87,71,54,30.22,29.96,14,10,27,0.06
2012-12-22,61.6,55.0,48.8,46.5,42.8,38.7,76,64,48,30.29,30.19,11,6,16,0.00
2012-12-23,68.9,56.6,46.4,55.1,47.4,39.2,86,72,53,30.25,30.14,6,2,7,0.00
2012-12-24,70.2,63.0,55.2,62.1,56.7,51.3,88,80,63,30.14,29.96,7,2,11,0.00
2012-12-25,74.5,66.7,58.9,64.7,60.5,55.3,88,81,63,30.02,29.88,9,4,13,0.00
2012-12-26,75.1,68.9,63.0,70.1,63.8,56.1,87,84,77,30.01,29.84,13,6,21,0.11
2012-12-27,63.7,58.9,52.8,56.4,51.2,44.7,85,76,51,30.09,29.99,8,5,13,0.00
2012-12-28,72.3,70.3,68.6,67.1,65.2,63.3,87,84,77,29.99,29.93,8,3,12,0.05
2012-12-29,74.2,68.9,61.5,70.1,64.6,53.5,88,86,75,30.15,29.91,11,7,19,0.00
2012-12-30,61.7,54.9,45.3,54.4,45.9,38.5,83,72,54,30.32,30.14,14,8,25,0.00
2012-12-31,73.6,60.7,51.0,61.5,54.4,47.3,88,80,64,30.30,30.16,9,4,13,0.00
2013-1-1,75.8,68.1,59.8,65.1,61.4,55.9,87,80,65,30.20,30.03,10,4,16,0.00